Vaaraa aiheuttavia sääilmiöitä ei ole odotettavissa.    Ei varoituksia

Webkamera Lisätietoa Webcam


Yksityisiä sääasemia lähellä:

Sääasema Juupajoki

Sääasema Orivesi

Sääasema Muurame

Sääasema Jyväskylä

Sääasema Vihtavuori


Löydät sääaseman tiedot myös:

Finland Weather Exchange

European Weather Network

Weather Underground

AWEKAS

Windy.com



Säätiedot lähimmiltä METAR asemilta

   
EFHA - Halli (Fin-Afb), Finland
Etäisyys asemalta: Kaakko 25 km
Päivitetty: 03.07.2020 15:20
Selkeää  
Selkeää  
   Tuuli: Länsilounas 6.2 m/s
Tuuli: Länsilounas 6.2 m/s
Lämpötila: 17°C
Kastepiste: 6°C
Kosteus: 49%
Ilmanpaine: 1005 hPa
Näkyvyys: Enemmän kuin 10 km
Pilvitiedot: Selkeää
EFHA 031220Z AUTO 24012KT 200V280 CAVOK 17/06 Q1005
EFJY - Jyvaskyla (Mil/Civ), Finland
Etäisyys asemalta: Koillinen 75 km
Päivitetty: 03.07.2020 15:20
Selkeää  
Selkeää  
   Tuuli: Lounas 7.2 m/s
Tuuli: Lounas 7.2 m/s
Lämpötila: 17°C
Kastepiste: 6°C
Kosteus: 49%
Ilmanpaine: 1004 hPa
Näkyvyys: Enemmän kuin 10 km
Pilvitiedot: Selkeää
EFJY 031220Z AUTO 23014KT 200V270 CAVOK 17/06 Q1004
EFTP - Tampere/Pirkkala, Finland
Etäisyys asemalta: Lounas 81 km
Päivitetty: 03.07.2020 15:20
Heikkoja sadekuuroja, Sade, Vähäistä pilvisyyttä  
Heikkoja sadekuuroja, Sade, Vähäistä pilvisyyttä  
   Tuuli: Länsi 6.2 m/s
Tuuli: Länsi 6.2 m/s
Lämpötila: 15°C
Kastepiste: 8°C
Kosteus: 63%
Ilmanpaine: 1006 hPa
Pilvisyys: Vähäistä pilvisyyttä
Näkyvyys: Enemmän kuin 10 km
Pilvitiedot: Vähäistä pilvisyyttä 1494 m,
Ukkosta
EFTP 031220Z AUTO 27012KT 240V300 9999 -SHRA FEW049 //////CB 15/08 Q1006 RESHRA
EFSI - Seinajoki-Ilmajoki, Finland
Etäisyys asemalta: Luode 114 km
Päivitetty: 03.07.2020 15:20
Puolipilvistä  
Puolipilvistä  
   Tuuli: Vaihtelee 4.1 m/s
Tuuli: Vaihtelee 4.1 m/s
Lämpötila: 15°C
Kastepiste: 7°C
Kosteus: 59%
Ilmanpaine: 1004 hPa
Pilvisyys: Puolipilvistä
Näkyvyys: Enemmän kuin 10 km
Pilvitiedot: Vähäistä pilvisyyttä 1067 m,
Puolipilvistä 1676 m
EFSI 031220Z AUTO VRB08KT 9999 FEW035 SCT055 15/07 Q1004
EFMI - Mikkeli, Finland
Etäisyys asemalta: Itäkaakko 147 km
Päivitetty: 03.07.2020 15:20
Melkein pilvistä  
Melkein pilvistä  
   Tuuli: Länsilounas 5.1 m/s
Tuuli: Länsilounas 5.1 m/s
Pilvisyys: Melkein pilvistä
Näkyvyys: Enemmän kuin 10 km
Pilvitiedot: Melkein pilvistä 1463 m
EFMI 031220Z AUTO 24010KT 170V290 9999 BKN048 ///// Q////
EFPO - Pori (Mil/Civ), Finland
Etäisyys asemalta: Länsilounas 154 km
Päivitetty: 03.07.2020 15:20
Puolipilvistä  
Puolipilvistä  
   Tuuli: Länsilounas 5.1 m/s
Tuuli: Länsilounas 5.1 m/s
Lämpötila: 16°C
Kastepiste: 9°C
Kosteus: 63%
Ilmanpaine: 1006 hPa
Pilvisyys: Puolipilvistä
Näkyvyys: Enemmän kuin 10 km
Pilvitiedot: Puolipilvistä 1006 m
EFPO 031220Z AUTO 25010KT 190V290 9999 SCT033 16/09 Q1006
EFUT - Utti (Fin-Afb), Finland
Etäisyys asemalta: Kaakko 180 km
Päivitetty: 03.07.2020 15:20
Melkein pilvistä  
Melkein pilvistä  
   Tuuli: Lounas 6.7 m/s
Tuuli: Lounas 6.7 m/s
Lämpötila: 20°C
Kastepiste: 9°C
Kosteus: 49%
Ilmanpaine: 1006 hPa
Pilvisyys: Melkein pilvistä
Näkyvyys: Enemmän kuin 10 km
Pilvitiedot: Melkein pilvistä 1219 m
EFUT 031220Z AUTO 22013KT 190V250 9999 BKN040 20/09 Q1006
EFVA - Vaasa, Finland
Etäisyys asemalta: Luode 180 km
Päivitetty: 03.07.2020 15:20
Pilvistä  
Pilvistä  
   Tuuli: Lounas 7.2 m/s
Tuuli: Lounas 7.2 m/s
Lämpötila: 13°C
Kastepiste: 7°C
Kosteus: 67%
Ilmanpaine: 1003 hPa
Pilvisyys: Pilvistä
Näkyvyys: Enemmän kuin 10 km
Pilvitiedot: Pilvistä 975 m
EFVA 031220Z AUTO 23014KT 9999 OVC032 13/07 Q1003
EFHK - Helsinki/Vantaa, Finland
Etäisyys asemalta: Etelä 191 km
Päivitetty: 03.07.2020 15:20
Puolipilvistä  
Puolipilvistä  
   Tuuli: Lounas 7.7 m/s
Tuuli: Lounas 7.7 m/s
Lämpötila: 20°C
Kastepiste: 11°C
Kosteus: 56%
Ilmanpaine: 1007 hPa
Pilvisyys: Puolipilvistä
Näkyvyys: Enemmän kuin 10 km
Pilvitiedot: Puolipilvistä 1097 m
EFHK 031220Z 22015KT 190V250 9999 SCT036 20/11 Q1007 NOSIG

Alkuperäinen skripti  Saratoga-weather.org Sovitettu myös templatelle  Weerstation Leuven

Laitteet joita käytämme:

Sääasema
Davis VP2

Sääasemaohjelma
Cumulus

Sääaseman palvelin
HP ProBook 6460b

Palveluntarjoaja
Radicenter

Davis VP2

Cumulus

HP ProBook 6460b

Radicenter




Flag Counter Cumulus Top Weather Sites